Terminal Aerodrome Forecast
Issued by NWS

Home | Current Version | Previous Version | Text Only | Print | Product List | Glossary On
Versions: 1 2 3 4 5 6 7 8 9 10 11 12 13
000
FTUS42 KGSP 231755 CCA
TAFGMU
TAF COR
KGMU 231755Z 2318/2418 22009KT P6SM VCSH BKN050
      TEMPO 2319/2323 VRB15G25KT 4SM -TSRA OVC025CB
     FM232300 22009KT P6SM VCTS BKN050CB
     FM240200 22006KT P6SM SCT060 BKN250
     FM241600 24004KT P6SM SCT045 BKN250 PROB30 2416/2418 4SM -TSRA
      OVC025CB=

USA.gov is the U.S. government's official web portal to all federal, state and local government web resources and services.